sensor_id;sensor_type;location;lat;lon;timestamp;P1;durP1;ratioP1;P2;durP2;ratioP2
8086;SDS011;4086;54.412;9.980;2023-09-12T00:01:49;13.30;;;10.07;;
8086;SDS011;4086;54.412;9.980;2023-09-12T00:04:16;15.13;;;10.63;;
8086;SDS011;4086;54.412;9.980;2023-09-12T00:06:42;17.73;;;10.13;;
8086;SDS011;4086;54.412;9.980;2023-09-12T00:09:08;21.10;;;11.63;;
8086;SDS011;4086;54.412;9.980;2023-09-12T00:11:35;11.53;;;8.13;;
8086;SDS011;4086;54.412;9.980;2023-09-12T00:14:02;14.17;;;10.47;;
8086;SDS011;4086;54.412;9.980;2023-09-12T00:16:28;16.23;;;10.70;;
8086;SDS011;4086;54.412;9.980;2023-09-12T00:18:56;15.27;;;11.10;;
8086;SDS011;4086;54.412;9.980;2023-09-12T00:21:22;16.50;;;11.23;;
8086;SDS011;4086;54.412;9.980;2023-09-12T00:23:49;17.47;;;11.43;;
8086;SDS011;4086;54.412;9.980;2023-09-12T00:26:15;18.37;;;10.73;;
8086;SDS011;4086;54.412;9.980;2023-09-12T00:28:41;14.60;;;8.47;;
8086;SDS011;4086;54.412;9.980;2023-09-12T00:31:08;14.57;;;9.40;;
8086;SDS011;4086;54.412;9.980;2023-09-12T00:33:34;13.60;;;10.37;;
8086;SDS011;4086;54.412;9.980;2023-09-12T00:36:02;13.63;;;10.27;;
8086;SDS011;4086;54.412;9.980;2023-09-12T00:38:28;13.03;;;8.37;;
8086;SDS011;4086;54.412;9.980;2023-09-12T00:40:55;14.17;;;9.77;;
8086;SDS011;4086;54.412;9.980;2023-09-12T00:43:21;17.10;;;9.83;;
8086;SDS011;4086;54.412;9.980;2023-09-12T00:45:48;13.47;;;8.67;;
8086;SDS011;4086;54.412;9.980;2023-09-12T00:48:14;12.23;;;9.07;;
8086;SDS011;4086;54.412;9.980;2023-09-12T00:50:41;14.00;;;9.73;;
8086;SDS011;4086;54.412;9.980;2023-09-12T00:53:10;14.03;;;8.90;;
8086;SDS011;4086;54.412;9.980;2023-09-12T00:55:37;15.33;;;9.43;;
8086;SDS011;4086;54.412;9.980;2023-09-12T00:58:08;18.03;;;10.33;;
8086;SDS011;4086;54.412;9.980;2023-09-12T01:00:35;20.53;;;10.73;;
8086;SDS011;4086;54.412;9.980;2023-09-12T01:03:01;12.73;;;8.43;;
8086;SDS011;4086;54.412;9.980;2023-09-12T01:05:28;20.13;;;10.30;;
8086;SDS011;4086;54.412;9.980;2023-09-12T01:07:54;14.47;;;8.97;;
8086;SDS011;4086;54.412;9.980;2023-09-12T01:10:22;14.70;;;9.40;;
8086;SDS011;4086;54.412;9.980;2023-09-12T01:12:49;14.70;;;8.30;;
8086;SDS011;4086;54.412;9.980;2023-09-12T01:15:16;12.37;;;8.00;;
8086;SDS011;4086;54.412;9.980;2023-09-12T01:17:43;15.10;;;7.77;;
8086;SDS011;4086;54.412;9.980;2023-09-12T01:20:11;13.97;;;8.40;;
8086;SDS011;4086;54.412;9.980;2023-09-12T01:22:45;14.80;;;8.70;;
8086;SDS011;4086;54.412;9.980;2023-09-12T01:25:39;14.53;;;8.40;;
8086;SDS011;4086;54.412;9.980;2023-09-12T01:28:12;14.97;;;9.03;;
8086;SDS011;4086;54.412;9.980;2023-09-12T01:30:40;14.63;;;8.73;;
8086;SDS011;4086;54.412;9.980;2023-09-12T01:33:08;15.43;;;8.93;;
8086;SDS011;4086;54.412;9.980;2023-09-12T01:35:34;14.87;;;8.30;;
8086;SDS011;4086;54.412;9.980;2023-09-12T01:38:01;14.73;;;9.30;;
8086;SDS011;4086;54.412;9.980;2023-09-12T01:40:29;14.20;;;8.43;;
8086;SDS011;4086;54.412;9.980;2023-09-12T01:42:58;12.33;;;7.70;;
8086;SDS011;4086;54.412;9.980;2023-09-12T01:45:26;16.40;;;9.13;;
8086;SDS011;4086;54.412;9.980;2023-09-12T01:47:53;14.00;;;8.50;;
8086;SDS011;4086;54.412;9.980;2023-09-12T01:50:20;11.90;;;7.23;;
8086;SDS011;4086;54.412;9.980;2023-09-12T01:52:46;13.93;;;9.03;;
8086;SDS011;4086;54.412;9.980;2023-09-12T01:55:13;11.10;;;7.67;;
8086;SDS011;4086;54.412;9.980;2023-09-12T01:57:40;13.60;;;7.77;;
8086;SDS011;4086;54.412;9.980;2023-09-12T02:00:07;15.57;;;8.53;;
8086;SDS011;4086;54.412;9.980;2023-09-12T02:02:35;15.93;;;8.50;;
8086;SDS011;4086;54.412;9.980;2023-09-12T02:05:04;13.43;;;7.57;;
8086;SDS011;4086;54.412;9.980;2023-09-12T02:07:37;17.50;;;9.50;;
8086;SDS011;4086;54.412;9.980;2023-09-12T02:10:04;17.23;;;9.47;;
8086;SDS011;4086;54.412;9.980;2023-09-12T02:12:31;14.30;;;8.53;;
8086;SDS011;4086;54.412;9.980;2023-09-12T02:14:57;13.70;;;8.43;;
8086;SDS011;4086;54.412;9.980;2023-09-12T02:17:24;12.57;;;7.47;;
8086;SDS011;4086;54.412;9.980;2023-09-12T02:19:52;15.47;;;8.63;;
8086;SDS011;4086;54.412;9.980;2023-09-12T02:22:18;15.93;;;9.30;;
8086;SDS011;4086;54.412;9.980;2023-09-12T02:24:44;11.73;;;7.00;;
8086;SDS011;4086;54.412;9.980;2023-09-12T02:27:11;13.63;;;9.17;;
8086;SDS011;4086;54.412;9.980;2023-09-12T02:29:38;13.90;;;8.17;;
8086;SDS011;4086;54.412;9.980;2023-09-12T02:32:04;17.27;;;8.13;;
8086;SDS011;4086;54.412;9.980;2023-09-12T02:34:31;13.23;;;7.87;;
8086;SDS011;4086;54.412;9.980;2023-09-12T02:36:59;13.63;;;7.47;;
8086;SDS011;4086;54.412;9.980;2023-09-12T02:39:26;10.93;;;7.33;;
8086;SDS011;4086;54.412;9.980;2023-09-12T02:41:52;12.53;;;8.13;;
8086;SDS011;4086;54.412;9.980;2023-09-12T02:44:18;14.70;;;8.87;;
8086;SDS011;4086;54.412;9.980;2023-09-12T02:46:45;13.57;;;8.03;;
8086;SDS011;4086;54.412;9.980;2023-09-12T02:49:11;11.53;;;7.77;;
8086;SDS011;4086;54.412;9.980;2023-09-12T02:51:38;12.77;;;8.33;;
8086;SDS011;4086;54.412;9.980;2023-09-12T02:54:06;12.47;;;8.60;;
8086;SDS011;4086;54.412;9.980;2023-09-12T02:56:32;13.63;;;7.70;;
8086;SDS011;4086;54.412;9.980;2023-09-12T02:58:59;11.53;;;6.80;;
8086;SDS011;4086;54.412;9.980;2023-09-12T03:01:25;13.13;;;7.53;;
8086;SDS011;4086;54.412;9.980;2023-09-12T03:03:53;14.43;;;7.63;;
8086;SDS011;4086;54.412;9.980;2023-09-12T03:06:20;8.83;;;6.93;;
8086;SDS011;4086;54.412;9.980;2023-09-12T03:08:46;11.93;;;7.30;;
8086;SDS011;4086;54.412;9.980;2023-09-12T03:11:15;11.10;;;7.00;;
8086;SDS011;4086;54.412;9.980;2023-09-12T03:13:42;8.97;;;6.60;;
8086;SDS011;4086;54.412;9.980;2023-09-12T03:16:09;10.90;;;6.73;;
8086;SDS011;4086;54.412;9.980;2023-09-12T03:18:35;12.23;;;8.30;;
8086;SDS011;4086;54.412;9.980;2023-09-12T03:21:02;10.67;;;7.13;;
8086;SDS011;4086;54.412;9.980;2023-09-12T03:23:28;8.90;;;6.13;;
8086;SDS011;4086;54.412;9.980;2023-09-12T03:25:55;10.67;;;7.37;;
8086;SDS011;4086;54.412;9.980;2023-09-12T03:28:22;13.20;;;7.60;;
8086;SDS011;4086;54.412;9.980;2023-09-12T03:30:49;10.23;;;6.27;;
8086;SDS011;4086;54.412;9.980;2023-09-12T03:33:15;11.87;;;7.83;;
8086;SDS011;4086;54.412;9.980;2023-09-12T03:35:42;11.80;;;7.70;;
8086;SDS011;4086;54.412;9.980;2023-09-12T03:38:09;13.23;;;8.67;;
8086;SDS011;4086;54.412;9.980;2023-09-12T03:40:35;11.33;;;7.43;;
8086;SDS011;4086;54.412;9.980;2023-09-12T03:43:02;12.87;;;8.27;;
8086;SDS011;4086;54.412;9.980;2023-09-12T03:45:30;11.43;;;7.33;;
8086;SDS011;4086;54.412;9.980;2023-09-12T03:47:56;14.70;;;8.70;;
8086;SDS011;4086;54.412;9.980;2023-09-12T03:50:22;14.73;;;8.17;;
8086;SDS011;4086;54.412;9.980;2023-09-12T03:52:49;12.97;;;7.97;;
8086;SDS011;4086;54.412;9.980;2023-09-12T03:55:15;11.73;;;7.80;;
8086;SDS011;4086;54.412;9.980;2023-09-12T03:57:42;9.43;;;7.40;;
8086;SDS011;4086;54.412;9.980;2023-09-12T04:00:08;12.23;;;7.13;;
8086;SDS011;4086;54.412;9.980;2023-09-12T04:02:36;11.67;;;7.37;;
8086;SDS011;4086;54.412;9.980;2023-09-12T04:05:03;11.50;;;8.10;;
8086;SDS011;4086;54.412;9.980;2023-09-12T04:07:30;11.87;;;7.17;;
8086;SDS011;4086;54.412;9.980;2023-09-12T04:09:56;16.67;;;8.77;;
8086;SDS011;4086;54.412;9.980;2023-09-12T04:12:22;13.47;;;8.40;;
8086;SDS011;4086;54.412;9.980;2023-09-12T04:14:49;12.13;;;8.13;;
8086;SDS011;4086;54.412;9.980;2023-09-12T04:17:15;9.70;;;7.03;;
8086;SDS011;4086;54.412;9.980;2023-09-12T04:19:43;13.13;;;8.03;;
8086;SDS011;4086;54.412;9.980;2023-09-12T04:22:09;15.17;;;8.00;;
8086;SDS011;4086;54.412;9.980;2023-09-12T04:24:36;12.43;;;8.50;;
8086;SDS011;4086;54.412;9.980;2023-09-12T04:27:02;11.20;;;7.87;;
8086;SDS011;4086;54.412;9.980;2023-09-12T04:29:31;11.07;;;7.80;;
8086;SDS011;4086;54.412;9.980;2023-09-12T04:31:58;11.23;;;7.40;;
8086;SDS011;4086;54.412;9.980;2023-09-12T04:34:24;13.73;;;8.93;;
8086;SDS011;4086;54.412;9.980;2023-09-12T04:36:52;11.20;;;7.47;;
8086;SDS011;4086;54.412;9.980;2023-09-12T04:39:19;14.33;;;8.13;;
8086;SDS011;4086;54.412;9.980;2023-09-12T04:41:45;11.30;;;7.93;;
8086;SDS011;4086;54.412;9.980;2023-09-12T04:44:12;13.50;;;8.63;;
8086;SDS011;4086;54.412;9.980;2023-09-12T04:46:38;11.03;;;7.70;;
8086;SDS011;4086;54.412;9.980;2023-09-12T04:49:04;11.97;;;7.97;;
8086;SDS011;4086;54.412;9.980;2023-09-12T04:51:31;11.93;;;7.57;;
8086;SDS011;4086;54.412;9.980;2023-09-12T04:53:58;11.47;;;7.37;;
8086;SDS011;4086;54.412;9.980;2023-09-12T04:56:25;11.43;;;7.23;;
8086;SDS011;4086;54.412;9.980;2023-09-12T04:58:51;14.53;;;8.90;;
8086;SDS011;4086;54.412;9.980;2023-09-12T05:01:17;13.47;;;9.20;;
8086;SDS011;4086;54.412;9.980;2023-09-12T05:03:44;12.17;;;7.70;;
8086;SDS011;4086;54.412;9.980;2023-09-12T05:06:10;11.83;;;8.20;;
8086;SDS011;4086;54.412;9.980;2023-09-12T05:08:36;11.73;;;7.50;;
8086;SDS011;4086;54.412;9.980;2023-09-12T05:11:04;12.30;;;8.07;;
8086;SDS011;4086;54.412;9.980;2023-09-12T05:13:30;14.77;;;8.43;;
8086;SDS011;4086;54.412;9.980;2023-09-12T05:15:57;12.07;;;7.87;;
8086;SDS011;4086;54.412;9.980;2023-09-12T05:18:23;12.73;;;8.27;;
8086;SDS011;4086;54.412;9.980;2023-09-12T05:20:50;12.73;;;7.93;;
8086;SDS011;4086;54.412;9.980;2023-09-12T05:23:16;13.33;;;7.87;;
8086;SDS011;4086;54.412;9.980;2023-09-12T05:25:42;13.13;;;8.20;;
8086;SDS011;4086;54.412;9.980;2023-09-12T05:28:10;12.67;;;8.10;;
8086;SDS011;4086;54.412;9.980;2023-09-12T05:30:40;21.17;;;11.00;;
8086;SDS011;4086;54.412;9.980;2023-09-12T05:33:07;14.43;;;9.00;;
8086;SDS011;4086;54.412;9.980;2023-09-12T05:35:33;13.43;;;9.40;;
8086;SDS011;4086;54.412;9.980;2023-09-12T05:38:00;14.87;;;8.20;;
8086;SDS011;4086;54.412;9.980;2023-09-12T05:40:26;14.17;;;10.00;;
8086;SDS011;4086;54.412;9.980;2023-09-12T05:42:52;16.67;;;9.57;;
8086;SDS011;4086;54.412;9.980;2023-09-12T05:45:20;14.73;;;8.50;;
8086;SDS011;4086;54.412;9.980;2023-09-12T05:47:46;10.93;;;7.80;;
8086;SDS011;4086;54.412;9.980;2023-09-12T05:50:13;13.40;;;8.27;;
8086;SDS011;4086;54.412;9.980;2023-09-12T05:52:39;14.23;;;9.33;;
8086;SDS011;4086;54.412;9.980;2023-09-12T05:55:07;15.53;;;9.07;;
8086;SDS011;4086;54.412;9.980;2023-09-12T05:57:34;10.90;;;7.00;;
8086;SDS011;4086;54.412;9.980;2023-09-12T06:00:00;17.33;;;10.27;;
8086;SDS011;4086;54.412;9.980;2023-09-12T06:02:31;17.43;;;8.87;;
8086;SDS011;4086;54.412;9.980;2023-09-12T06:04:58;12.50;;;7.83;;
8086;SDS011;4086;54.412;9.980;2023-09-12T06:07:25;14.10;;;8.93;;
8086;SDS011;4086;54.412;9.980;2023-09-12T06:09:51;14.37;;;8.77;;
8086;SDS011;4086;54.412;9.980;2023-09-12T06:12:17;11.70;;;7.80;;
8086;SDS011;4086;54.412;9.980;2023-09-12T06:14:44;10.47;;;6.80;;
8086;SDS011;4086;54.412;9.980;2023-09-12T06:17:10;14.40;;;9.17;;
8086;SDS011;4086;54.412;9.980;2023-09-12T06:19:38;12.27;;;7.53;;
8086;SDS011;4086;54.412;9.980;2023-09-12T06:22:05;9.80;;;7.60;;
8086;SDS011;4086;54.412;9.980;2023-09-12T06:24:31;14.53;;;9.03;;
8086;SDS011;4086;54.412;9.980;2023-09-12T06:26:57;13.60;;;9.17;;
8086;SDS011;4086;54.412;9.980;2023-09-12T06:29:24;21.53;;;10.30;;
8086;SDS011;4086;54.412;9.980;2023-09-12T06:31:50;17.00;;;9.47;;
8086;SDS011;4086;54.412;9.980;2023-09-12T06:34:16;14.10;;;8.60;;
8086;SDS011;4086;54.412;9.980;2023-09-12T06:36:44;15.43;;;9.17;;
8086;SDS011;4086;54.412;9.980;2023-09-12T06:39:10;13.03;;;9.13;;
8086;SDS011;4086;54.412;9.980;2023-09-12T06:41:37;13.67;;;9.23;;
8086;SDS011;4086;54.412;9.980;2023-09-12T06:44:03;15.67;;;8.80;;
8086;SDS011;4086;54.412;9.980;2023-09-12T06:46:30;13.63;;;8.73;;
8086;SDS011;4086;54.412;9.980;2023-09-12T06:48:58;12.73;;;8.60;;
8086;SDS011;4086;54.412;9.980;2023-09-12T06:51:25;18.97;;;10.33;;
8086;SDS011;4086;54.412;9.980;2023-09-12T06:53:53;19.50;;;10.93;;
8086;SDS011;4086;54.412;9.980;2023-09-12T06:56:19;17.10;;;10.13;;
8086;SDS011;4086;54.412;9.980;2023-09-12T06:58:46;15.73;;;9.83;;
8086;SDS011;4086;54.412;9.980;2023-09-12T07:01:13;12.17;;;7.73;;
8086;SDS011;4086;54.412;9.980;2023-09-12T07:03:39;12.57;;;8.20;;
8086;SDS011;4086;54.412;9.980;2023-09-12T07:06:05;12.47;;;9.27;;
8086;SDS011;4086;54.412;9.980;2023-09-12T07:08:33;14.77;;;9.57;;
8086;SDS011;4086;54.412;9.980;2023-09-12T07:11:01;14.33;;;9.20;;
8086;SDS011;4086;54.412;9.980;2023-09-12T07:13:30;14.73;;;7.93;;
8086;SDS011;4086;54.412;9.980;2023-09-12T07:15:57;13.37;;;7.70;;
8086;SDS011;4086;54.412;9.980;2023-09-12T07:18:24;13.70;;;8.87;;
8086;SDS011;4086;54.412;9.980;2023-09-12T07:20:56;15.47;;;9.17;;
8086;SDS011;4086;54.412;9.980;2023-09-12T07:23:23;17.40;;;10.23;;
8086;SDS011;4086;54.412;9.980;2023-09-12T07:25:49;14.17;;;9.23;;
8086;SDS011;4086;54.412;9.980;2023-09-12T07:28:17;11.63;;;8.00;;
8086;SDS011;4086;54.412;9.980;2023-09-12T07:30:45;14.03;;;8.37;;
8086;SDS011;4086;54.412;9.980;2023-09-12T07:33:11;16.37;;;9.87;;
8086;SDS011;4086;54.412;9.980;2023-09-12T07:35:38;16.43;;;10.27;;
8086;SDS011;4086;54.412;9.980;2023-09-12T07:38:04;12.73;;;7.90;;
8086;SDS011;4086;54.412;9.980;2023-09-12T07:40:31;14.30;;;9.87;;
8086;SDS011;4086;54.412;9.980;2023-09-12T07:42:57;17.47;;;10.53;;
8086;SDS011;4086;54.412;9.980;2023-09-12T07:45:25;15.40;;;9.63;;
8086;SDS011;4086;54.412;9.980;2023-09-12T07:47:52;16.13;;;9.63;;
8086;SDS011;4086;54.412;9.980;2023-09-12T07:50:18;12.60;;;8.63;;
8086;SDS011;4086;54.412;9.980;2023-09-12T07:52:45;12.40;;;8.37;;
8086;SDS011;4086;54.412;9.980;2023-09-12T07:55:11;14.23;;;9.53;;
8086;SDS011;4086;54.412;9.980;2023-09-12T07:57:37;14.80;;;9.17;;
8086;SDS011;4086;54.412;9.980;2023-09-12T08:00:04;13.57;;;9.60;;
8086;SDS011;4086;54.412;9.980;2023-09-12T08:02:36;13.80;;;9.60;;
8086;SDS011;4086;54.412;9.980;2023-09-12T08:05:03;12.13;;;9.27;;
8086;SDS011;4086;54.412;9.980;2023-09-12T08:07:30;15.13;;;9.23;;
8086;SDS011;4086;54.412;9.980;2023-09-12T08:09:57;13.03;;;8.93;;
8086;SDS011;4086;54.412;9.980;2023-09-12T08:12:24;12.17;;;8.70;;
8086;SDS011;4086;54.412;9.980;2023-09-12T08:14:51;13.10;;;8.53;;
8086;SDS011;4086;54.412;9.980;2023-09-12T08:17:18;13.63;;;8.87;;
8086;SDS011;4086;54.412;9.980;2023-09-12T08:19:46;13.03;;;8.50;;
8086;SDS011;4086;54.412;9.980;2023-09-12T08:22:12;11.97;;;8.97;;
8086;SDS011;4086;54.412;9.980;2023-09-12T08:24:39;11.97;;;8.20;;
8086;SDS011;4086;54.412;9.980;2023-09-12T08:27:05;9.77;;;7.53;;
8086;SDS011;4086;54.412;9.980;2023-09-12T08:29:32;12.40;;;8.40;;
8086;SDS011;4086;54.412;9.980;2023-09-12T08:31:59;11.67;;;7.50;;
8086;SDS011;4086;54.412;9.980;2023-09-12T08:34:26;10.13;;;7.60;;
8086;SDS011;4086;54.412;9.980;2023-09-12T08:36:54;9.57;;;6.83;;
8086;SDS011;4086;54.412;9.980;2023-09-12T08:39:23;8.57;;;6.80;;
8086;SDS011;4086;54.412;9.980;2023-09-12T08:41:49;7.03;;;6.00;;
8086;SDS011;4086;54.412;9.980;2023-09-12T08:44:16;9.10;;;6.43;;
8086;SDS011;4086;54.412;9.980;2023-09-12T08:46:44;8.87;;;7.40;;
8086;SDS011;4086;54.412;9.980;2023-09-12T08:49:10;9.50;;;6.27;;
8086;SDS011;4086;54.412;9.980;2023-09-12T08:51:37;6.50;;;5.80;;
8086;SDS011;4086;54.412;9.980;2023-09-12T08:54:05;9.53;;;6.27;;
8086;SDS011;4086;54.412;9.980;2023-09-12T08:56:32;7.40;;;5.60;;
8086;SDS011;4086;54.412;9.980;2023-09-12T08:59:00;6.57;;;5.70;;
8086;SDS011;4086;54.412;9.980;2023-09-12T09:01:28;5.53;;;4.47;;
8086;SDS011;4086;54.412;9.980;2023-09-12T09:03:57;8.07;;;5.43;;
8086;SDS011;4086;54.412;9.980;2023-09-12T09:06:23;6.73;;;5.30;;
8086;SDS011;4086;54.412;9.980;2023-09-12T09:08:51;5.10;;;4.07;;
8086;SDS011;4086;54.412;9.980;2023-09-12T09:11:19;4.83;;;3.90;;
8086;SDS011;4086;54.412;9.980;2023-09-12T09:13:46;6.23;;;5.17;;
8086;SDS011;4086;54.412;9.980;2023-09-12T09:16:13;6.70;;;5.20;;
8086;SDS011;4086;54.412;9.980;2023-09-12T09:18:50;4.60;;;4.00;;
8086;SDS011;4086;54.412;9.980;2023-09-12T09:21:19;6.30;;;4.40;;
8086;SDS011;4086;54.412;9.980;2023-09-12T09:23:49;6.37;;;4.77;;
8086;SDS011;4086;54.412;9.980;2023-09-12T09:26:16;5.13;;;4.53;;
8086;SDS011;4086;54.412;9.980;2023-09-12T09:28:43;6.03;;;4.60;;
8086;SDS011;4086;54.412;9.980;2023-09-12T09:31:10;5.30;;;4.80;;
8086;SDS011;4086;54.412;9.980;2023-09-12T09:33:37;3.97;;;3.50;;
8086;SDS011;4086;54.412;9.980;2023-09-12T09:36:05;4.33;;;3.87;;
8086;SDS011;4086;54.412;9.980;2023-09-12T09:38:33;4.30;;;3.90;;
8086;SDS011;4086;54.412;9.980;2023-09-12T09:41:00;5.53;;;4.43;;
8086;SDS011;4086;54.412;9.980;2023-09-12T09:43:27;5.50;;;4.13;;
8086;SDS011;4086;54.412;9.980;2023-09-12T09:45:54;5.43;;;4.13;;
8086;SDS011;4086;54.412;9.980;2023-09-12T09:48:21;6.30;;;4.33;;
8086;SDS011;4086;54.412;9.980;2023-09-12T09:50:48;4.10;;;3.70;;
8086;SDS011;4086;54.412;9.980;2023-09-12T09:53:16;6.43;;;4.75;;
8086;SDS011;4086;54.412;9.980;2023-09-12T09:55:43;4.50;;;4.10;;
8086;SDS011;4086;54.412;9.980;2023-09-12T09:58:10;4.13;;;3.73;;
8086;SDS011;4086;54.412;9.980;2023-09-12T10:00:41;4.00;;;3.60;;
8086;SDS011;4086;54.412;9.980;2023-09-12T10:03:09;5.07;;;4.23;;
8086;SDS011;4086;54.412;9.980;2023-09-12T10:05:37;4.67;;;3.70;;
8086;SDS011;4086;54.412;9.980;2023-09-12T10:08:05;4.40;;;4.00;;
8086;SDS011;4086;54.412;9.980;2023-09-12T10:10:34;4.00;;;3.63;;
8086;SDS011;4086;54.412;9.980;2023-09-12T10:13:02;3.93;;;3.50;;
8086;SDS011;4086;54.412;9.980;2023-09-12T10:15:30;3.40;;;3.10;;
8086;SDS011;4086;54.412;9.980;2023-09-12T10:17:57;4.07;;;3.60;;
8086;SDS011;4086;54.412;9.980;2023-09-12T10:20:27;4.70;;;3.77;;
8086;SDS011;4086;54.412;9.980;2023-09-12T10:23:04;6.87;;;4.57;;
8086;SDS011;4086;54.412;9.980;2023-09-12T10:25:36;4.53;;;3.50;;
8086;SDS011;4086;54.412;9.980;2023-09-12T10:28:03;3.47;;;3.17;;
8086;SDS011;4086;54.412;9.980;2023-09-12T10:30:30;3.80;;;3.20;;
8086;SDS011;4086;54.412;9.980;2023-09-12T10:32:56;4.87;;;3.27;;
8086;SDS011;4086;54.412;9.980;2023-09-12T10:35:23;3.53;;;3.27;;
8086;SDS011;4086;54.412;9.980;2023-09-12T10:37:51;5.00;;;4.50;;
8086;SDS011;4086;54.412;9.980;2023-09-12T10:40:20;5.07;;;4.50;;
8086;SDS011;4086;54.412;9.980;2023-09-12T10:42:46;4.50;;;4.10;;
8086;SDS011;4086;54.412;9.980;2023-09-12T10:45:14;3.87;;;3.57;;
8086;SDS011;4086;54.412;9.980;2023-09-12T10:47:40;4.40;;;4.00;;
8086;SDS011;4086;54.412;9.980;2023-09-12T10:50:07;4.57;;;4.10;;
8086;SDS011;4086;54.412;9.980;2023-09-12T10:52:34;5.67;;;4.40;;
8086;SDS011;4086;54.412;9.980;2023-09-12T10:55:06;5.10;;;4.67;;
8086;SDS011;4086;54.412;9.980;2023-09-12T10:57:33;4.70;;;4.20;;
8086;SDS011;4086;54.412;9.980;2023-09-12T11:00:09;3.97;;;3.63;;
8086;SDS011;4086;54.412;9.980;2023-09-12T11:02:37;4.10;;;3.80;;
8086;SDS011;4086;54.412;9.980;2023-09-12T11:05:04;4.20;;;3.60;;
8086;SDS011;4086;54.412;9.980;2023-09-12T11:07:32;4.15;;;3.70;;
8086;SDS011;4086;54.412;9.980;2023-09-12T11:12:52;4.57;;;3.70;;
8086;SDS011;4086;54.412;9.980;2023-09-12T11:15:20;3.47;;;3.17;;
8086;SDS011;4086;54.412;9.980;2023-09-12T11:17:48;6.07;;;3.53;;
8086;SDS011;4086;54.412;9.980;2023-09-12T11:20:15;3.50;;;3.20;;
8086;SDS011;4086;54.412;9.980;2023-09-12T11:22:43;3.30;;;2.97;;
8086;SDS011;4086;54.412;9.980;2023-09-12T11:25:17;3.63;;;3.07;;
8086;SDS011;4086;54.412;9.980;2023-09-12T11:30:30;3.93;;;3.53;;
8086;SDS011;4086;54.412;9.980;2023-09-12T11:32:57;3.63;;;3.05;;
8086;SDS011;4086;54.412;9.980;2023-09-12T11:35:25;4.37;;;3.00;;
8086;SDS011;4086;54.412;9.980;2023-09-12T11:37:53;5.40;;;2.87;;
8086;SDS011;4086;54.412;9.980;2023-09-12T11:40:22;4.00;;;3.57;;
8086;SDS011;4086;54.412;9.980;2023-09-12T11:42:49;4.28;;;3.13;;
8086;SDS011;4086;54.412;9.980;2023-09-12T11:45:18;3.93;;;3.57;;
8086;SDS011;4086;54.412;9.980;2023-09-12T11:47:45;4.47;;;4.07;;
8086;SDS011;4086;54.412;9.980;2023-09-12T11:50:25;3.95;;;3.60;;
8086;SDS011;4086;54.412;9.980;2023-09-12T11:52:57;4.33;;;3.93;;
8086;SDS011;4086;54.412;9.980;2023-09-12T11:55:25;3.70;;;3.40;;
8086;SDS011;4086;54.412;9.980;2023-09-12T11:57:51;3.30;;;3.10;;
8086;SDS011;4086;54.412;9.980;2023-09-12T12:00:19;3.70;;;3.27;;
8086;SDS011;4086;54.412;9.980;2023-09-12T12:02:47;3.55;;;3.25;;
8086;SDS011;4086;54.412;9.980;2023-09-12T12:05:13;4.53;;;3.10;;
8086;SDS011;4086;54.412;9.980;2023-09-12T12:07:39;3.40;;;3.10;;
8086;SDS011;4086;54.412;9.980;2023-09-12T12:10:07;4.20;;;3.63;;
8086;SDS011;4086;54.412;9.980;2023-09-12T12:12:34;3.60;;;3.30;;
8086;SDS011;4086;54.412;9.980;2023-09-12T12:15:00;3.20;;;2.90;;
8086;SDS011;4086;54.412;9.980;2023-09-12T12:17:28;3.77;;;3.37;;
8086;SDS011;4086;54.412;9.980;2023-09-12T12:19:54;3.63;;;3.33;;
8086;SDS011;4086;54.412;9.980;2023-09-12T12:22:21;3.42;;;3.13;;
8086;SDS011;4086;54.412;9.980;2023-09-12T12:24:49;4.45;;;3.38;;
8086;SDS011;4086;54.412;9.980;2023-09-12T12:27:16;3.80;;;3.50;;
8086;SDS011;4086;54.412;9.980;2023-09-12T12:29:42;3.80;;;3.50;;
8086;SDS011;4086;54.412;9.980;2023-09-12T12:32:09;4.55;;;3.90;;
8086;SDS011;4086;54.412;9.980;2023-09-12T12:34:39;3.67;;;3.38;;
8086;SDS011;4086;54.412;9.980;2023-09-12T12:37:05;3.83;;;3.53;;
8086;SDS011;4086;54.412;9.980;2023-09-12T12:39:32;4.03;;;3.58;;
8086;SDS011;4086;54.412;9.980;2023-09-12T12:41:58;3.58;;;3.28;;
8086;SDS011;4086;54.412;9.980;2023-09-12T12:44:32;3.75;;;3.45;;
8086;SDS011;4086;54.412;9.980;2023-09-12T12:47:00;4.25;;;3.85;;
8086;SDS011;4086;54.412;9.980;2023-09-12T12:49:30;3.63;;;3.33;;
8086;SDS011;4086;54.412;9.980;2023-09-12T12:52:03;4.40;;;4.00;;
8086;SDS011;4086;54.412;9.980;2023-09-12T12:54:31;3.83;;;3.50;;
8086;SDS011;4086;54.412;9.980;2023-09-12T12:56:57;4.57;;;3.97;;
8086;SDS011;4086;54.412;9.980;2023-09-12T12:59:24;4.10;;;3.80;;
8086;SDS011;4086;54.412;9.980;2023-09-12T13:01:50;4.63;;;4.05;;
8086;SDS011;4086;54.412;9.980;2023-09-12T13:04:16;4.27;;;3.87;;
8086;SDS011;4086;54.412;9.980;2023-09-12T13:06:43;3.53;;;3.23;;
8086;SDS011;4086;54.412;9.980;2023-09-12T13:09:11;3.43;;;3.13;;
8086;SDS011;4086;54.412;9.980;2023-09-12T13:11:37;3.15;;;2.85;;
8086;SDS011;4086;54.412;9.980;2023-09-12T13:14:04;3.30;;;3.00;;
8086;SDS011;4086;54.412;9.980;2023-09-12T13:16:34;5.15;;;2.97;;
8086;SDS011;4086;54.412;9.980;2023-09-12T13:19:01;3.53;;;3.00;;
8086;SDS011;4086;54.412;9.980;2023-09-12T13:21:27;3.00;;;2.80;;
8086;SDS011;4086;54.412;9.980;2023-09-12T13:23:54;2.90;;;2.70;;
8086;SDS011;4086;54.412;9.980;2023-09-12T13:26:21;3.25;;;2.63;;
8086;SDS011;4086;54.412;9.980;2023-09-12T13:28:48;2.95;;;2.65;;
8086;SDS011;4086;54.412;9.980;2023-09-12T13:31:14;2.53;;;2.33;;
8086;SDS011;4086;54.412;9.980;2023-09-12T13:33:40;3.42;;;2.58;;
8086;SDS011;4086;54.412;9.980;2023-09-12T13:36:07;2.60;;;2.40;;
8086;SDS011;4086;54.412;9.980;2023-09-12T13:38:34;2.45;;;2.25;;
8086;SDS011;4086;54.412;9.980;2023-09-12T13:41:00;2.28;;;2.17;;
8086;SDS011;4086;54.412;9.980;2023-09-12T13:43:28;2.97;;;2.78;;
8086;SDS011;4086;54.412;9.980;2023-09-12T13:45:56;4.78;;;3.03;;
8086;SDS011;4086;54.412;9.980;2023-09-12T13:48:22;2.28;;;2.08;;
8086;SDS011;4086;54.412;9.980;2023-09-12T13:50:49;2.53;;;2.33;;
8086;SDS011;4086;54.412;9.980;2023-09-12T13:53:15;2.60;;;2.40;;
8086;SDS011;4086;54.412;9.980;2023-09-12T13:55:41;2.75;;;2.55;;
8086;SDS011;4086;54.412;9.980;2023-09-12T13:58:08;4.68;;;3.40;;
8086;SDS011;4086;54.412;9.980;2023-09-12T14:00:35;3.10;;;2.90;;
8086;SDS011;4086;54.412;9.980;2023-09-12T14:03:02;3.08;;;2.83;;
8086;SDS011;4086;54.412;9.980;2023-09-12T14:05:29;3.40;;;3.10;;
8086;SDS011;4086;54.412;9.980;2023-09-12T14:07:55;3.47;;;2.97;;
8086;SDS011;4086;54.412;9.980;2023-09-12T14:10:22;3.38;;;2.80;;
8086;SDS011;4086;54.412;9.980;2023-09-12T14:12:48;3.95;;;2.95;;
8086;SDS011;4086;54.412;9.980;2023-09-12T14:15:14;3.58;;;2.90;;
8086;SDS011;4086;54.412;9.980;2023-09-12T14:17:42;3.30;;;2.60;;
8086;SDS011;4086;54.412;9.980;2023-09-12T14:20:09;3.83;;;3.33;;
8086;SDS011;4086;54.412;9.980;2023-09-12T14:22:40;2.95;;;2.65;;
8086;SDS011;4086;54.412;9.980;2023-09-12T14:25:06;2.45;;;2.25;;
8086;SDS011;4086;54.412;9.980;2023-09-12T14:27:33;2.88;;;2.67;;
8086;SDS011;4086;54.412;9.980;2023-09-12T14:30:00;2.50;;;2.30;;
8086;SDS011;4086;54.412;9.980;2023-09-12T14:32:28;3.20;;;3.00;;
8086;SDS011;4086;54.412;9.980;2023-09-12T14:34:56;4.68;;;2.85;;
8086;SDS011;4086;54.412;9.980;2023-09-12T14:37:22;3.35;;;3.00;;
8086;SDS011;4086;54.412;9.980;2023-09-12T14:39:52;2.80;;;2.60;;
8086;SDS011;4086;54.412;9.980;2023-09-12T14:42:18;3.63;;;3.33;;
8086;SDS011;4086;54.412;9.980;2023-09-12T14:44:45;3.30;;;3.00;;
8086;SDS011;4086;54.412;9.980;2023-09-12T14:47:11;3.05;;;2.75;;
8086;SDS011;4086;54.412;9.980;2023-09-12T14:49:37;3.35;;;3.03;;
8086;SDS011;4086;54.412;9.980;2023-09-12T14:52:05;3.10;;;2.80;;
8086;SDS011;4086;54.412;9.980;2023-09-12T14:54:32;3.65;;;3.15;;
8086;SDS011;4086;54.412;9.980;2023-09-12T14:56:58;3.30;;;3.05;;
8086;SDS011;4086;54.412;9.980;2023-09-12T14:59:24;3.50;;;3.15;;
8086;SDS011;4086;54.412;9.980;2023-09-12T15:01:51;4.28;;;3.78;;
8086;SDS011;4086;54.412;9.980;2023-09-12T15:04:17;4.10;;;2.80;;
8086;SDS011;4086;54.412;9.980;2023-09-12T15:06:43;4.03;;;3.72;;
8086;SDS011;4086;54.412;9.980;2023-09-12T15:09:11;4.85;;;4.20;;
8086;SDS011;4086;54.412;9.980;2023-09-12T15:11:37;4.15;;;3.60;;
8086;SDS011;4086;54.412;9.980;2023-09-12T15:14:04;4.25;;;3.78;;